• Join FlightAware (Why Join?)
  • Login
  • US Flag 
09:24PM EST


 

Airport Tracker/Info


-or-


 

Live Flight TrackerFlight Track Log ✈ AWI3778 ✈ 17-Aug-2013 ✈ KJAX - KDCA

Flight Track Log - Related Links

Times and Time Zones

All times are in EDT time to prevent confusion due to time zone crossing. See the AWI3778 flight status page for this flight to view local times or setup timezone preferences in your user account.

Time Position Orientation Groundspeed Altitude Reporting Facility
EDT Latitude Longitude Course Direction KTS MPH feet Rate Location/Type
03:15PM 30.5278 -81.6433 50° Northeast 191 220 1,800  Level Jacksonville Center
03:16PM 30.5547 -81.6478 352° North 226 260 2,600 1,500 Climbing Jacksonville Center
03:17PM 30.6874 -81.4597 44° Northeast  Level FlightAware Approximate
03:17PM 30.6300 -81.6589 353° North 295 339 4,200  Level Jacksonville Center
03:18PM 30.7542 -81.3833 44° Northeast  Level FlightAware Approximate
03:18PM 30.7117 -81.6675 355° North 302 348 6,600  Level Jacksonville Center
03:19PM 30.8277 -81.3167 33° Northeast  Level FlightAware Approximate
03:19PM 30.7972 -81.6736 356° North 302 348 9,100  Level Jacksonville Center
03:20PM 30.9000 -81.2633 19° North  Level FlightAware Approximate
03:20PM 30.8808 -81.6725 North 297 342 11,500  Level Jacksonville Center
03:21PM 30.9728 -81.6714 North 302 348 13,500 1,860 Climbing Jacksonville Center
03:22PM 31.0667 -81.6703 North 321 369 15,300 1,740 Climbing Jacksonville Center
03:23PM 31.1625 -81.6592 North 333 383 17,000 1,500 Climbing Jacksonville Center
03:24PM 31.2583 -81.6336 13° North 338 389 18,400 1,260 Climbing Jacksonville Center
03:25PM 31.3603 -81.6081 12° North 356 410 19,600 1,320 Climbing Jacksonville Center
03:26PM 31.4728 -81.5747 14° North 369 425 21,100 1,200 Climbing Jacksonville Center
03:27PM 31.5622 -81.5467 15° North 376 433 22,000 780 Climbing Jacksonville Center
03:28PM 31.6789 -81.5181 12° North 375 432 22,700 540 Climbing Jacksonville Center
03:29PM 31.7894 -81.5092 North 382 440 23,100 600 Climbing Jacksonville Center
03:30PM 31.8894 -81.4978 North 393 452 24,000 900 Climbing Jacksonville Center
03:31PM 32.0103 -81.4789 North 400 460 25,000 900 Climbing Jacksonville Center
03:32PM 32.1056 -81.4089 32° Northeast 399 459 25,800 660 Climbing Jacksonville Center
03:33PM 32.1903 -81.3264 39° Northeast 406 467 26,400 660 Climbing Jacksonville Center
03:34PM 32.2789 -81.2389 40° Northeast 414 476 27,200 600 Climbing Jacksonville Center
03:35PM 32.3697 -81.1511 39° Northeast 420 483 27,700 600 Climbing Jacksonville Center
03:36PM 32.4747 -81.0531 38° Northeast 425 489 28,400 540 Climbing Jacksonville Center
03:37PM 32.5569 -80.9675 41° Northeast 425 489 28,800 540 Climbing Jacksonville Center
03:38PM 32.6536 -80.8767 38° Northeast 425 489 29,500 540 Climbing Jacksonville Center
03:39PM 32.7461 -80.7858 40° Northeast 430 495 29,900 360 Climbing Jacksonville Center
03:40PM 32.8406 -80.6944 39° Northeast 430 495 30,300 360 Climbing Jacksonville Center
03:41PM 32.9369 -80.6006 39° Northeast 436 502 30,700 300 Climbing Jacksonville Center
03:42PM 33.0333 -80.5089 39° Northeast 441 507 31,000 120 Climbing Jacksonville Center
03:43PM 33.1439 -80.3944 41° Northeast 460 529 31,000  Level Jacksonville Center
03:44PM 33.2361 -80.3097 38° Northeast 463 533 31,000  Level Jacksonville Center
03:45PM 33.3342 -80.2100 40° Northeast 468 539 31,000  Level Jacksonville Center
03:46PM 33.4444 -80.0997 40° Northeast 468 539 31,000  Level Jacksonville Center
03:47PM 33.5422 -79.9969 41° Northeast 468 539 31,000  Level Jacksonville Center
03:48PM 33.6422 -79.8989 39° Northeast 468 539 31,000  Level Jacksonville Center
03:49PM 33.7422 -79.7981 40° Northeast 468 539 31,000  Level Jacksonville Center
03:50PM 33.8397 -79.6947 41° Northeast 468 539 31,000  Level Jacksonville Center
03:51PM 33.9394 -79.5958 39° Northeast 463 533 31,000  Level Jacksonville Center
03:52PM 34.0717 -79.4628 40° Northeast 452 520 31,000  Level Washington Center
03:53PM 34.1708 -79.3619 40° Northeast 452 520 31,000  Level Washington Center
03:54PM 34.2697 -79.2658 39° Northeast 452 520 31,000  Level Washington Center
03:55PM 34.3889 -79.1958 26° Northeast 457 526 31,000  Level Washington Center
03:56PM 34.5014 -79.1300 26° Northeast 457 526 31,000  Level Washington Center
03:57PM 34.6158 -79.0644 25° Northeast 457 526 31,000  Level Washington Center
03:58PM 34.7325 -78.9961 26° Northeast 451 519 31,000  Level Washington Center
03:59PM 34.8514 -78.9278 25° Northeast 457 526 31,000  Level Washington Center
04:00PM 34.9639 -78.8614 26° Northeast 457 526 31,000  Level Washington Center
04:01PM 35.0825 -78.7925 25° Northeast 457 526 31,000  Level Washington Center
04:02PM 35.1950 -78.7258 26° Northeast 452 520 31,000  Level Washington Center
04:03PM 35.3114 -78.6567 26° Northeast 452 520 31,000  Level Washington Center
04:04PM 35.4322 -78.5872 25° Northeast 465 535 31,000  Level Washington Center
04:05PM 35.5572 -78.5103 27° Northeast 459 528 31,000  Level Washington Center
04:06PM 35.6800 -78.4381 26° Northeast 473 544 31,000  Level Washington Center
04:07PM 35.7964 -78.3706 25° Northeast 466 536 31,000 -240 Level Washington Center
04:08PM 35.9125 -78.3003 26° Northeast 466 536 30,600 -960 Descending Washington Center
04:09PM 36.0269 -78.2322 26° Northeast 461 531 29,100 -1,680 Descending Washington Center
04:10PM 36.1411 -78.1614 27° Northeast 456 525 27,400 -1,560 Descending Washington Center
04:11PM 36.2572 -78.0931 25° Northeast 456 525 26,000 -720 Descending Washington Center
04:12PM 36.3714 -78.0219 27° Northeast 456 525 26,000  Level Washington Center
04:13PM 36.4853 -77.9531 26° Northeast 456 525 26,000  Level Washington Center
04:14PM 36.6036 -77.8817 26° Northeast 456 525 26,000  Level Washington Center
04:15PM 36.7178 -77.8100 27° Northeast 456 525 26,000 -300 Level Washington Center
04:16PM 36.8358 -77.7406 25° Northeast 456 525 25,500 -900 Descending Washington Center
04:17PM 36.9581 -77.6633 27° Northeast 461 531 24,200 -1,320 Descending Washington Center
04:18PM 37.0783 -77.5886 26° Northeast 473 544 22,900 -1,140 Descending Washington Center
04:19PM 37.1900 -77.5186 27° Northeast 468 539 22,000 -480 Descending Washington Center
04:20PM 37.3036 -77.4483 26° Northeast 457 526 22,000  Level Washington Center
04:21PM 37.4133 -77.3778 27° Northeast 446 513 22,000 -300 Level Washington Center
04:22PM 37.5311 -77.3150 23° Northeast 446 513 21,500 -1,200 Descending Washington Center
04:23PM 37.6481 -77.2914 North 439 505 19,600 -1,860 Descending Washington Center
04:24PM 37.7633 -77.2678 North 421 484 17,800 -1,740 Descending Washington Center
04:25PM 37.8719 -77.2439 10° North 416 479 16,200 -1,680 Descending Washington Center
04:26PM 37.9786 -77.2225 North 398 458 14,400 -1,680 Descending Washington Center
04:27PM 38.0728 -77.2061 North 385 443 12,900 -1,680 Descending Washington Center
04:28PM 38.1731 -77.1844 10° North 375 432 11,100 -1,440 Descending Washington Center
04:29PM 38.2819 -77.1575 11° North 365 420 10,000 -600 Descending Washington Center
04:30PM 38.3739 -77.1411 North 365 420 10,000  Level Washington Center
04:31PM 38.4742 -77.1219 North 365 420 10,000  Level Washington Center
04:32PM 38.5725 -77.1000 10° North 365 420 10,000  Level Washington Center
04:33PM 38.6708 -77.0753 11° North 360 414 10,000 -600 Level Washington Center
04:34PM 38.7542 -77.0717 North 332 382 8,900 -1,860 Descending Washington Center
04:35PM 38.8000 -77.0833 349° North 306 352 7,300 -2,760 Descending Potomac TRACON
04:36PM 38.8667 -77.1500 322° Northwest 274 315 4,800 -2,100 Descending Potomac TRACON
04:37PM 38.9167 -77.2000 322° Northwest 257 296 3,400 -1,200 Descending Potomac TRACON
04:38PM 38.9500 -77.1833 21° North 177 204 2,600 -660 Descending Potomac TRACON
04:39PM 38.9333 -77.1333 113° Southeast 179 206 2,100 -660 Descending Potomac TRACON
04:40PM 38.9167 -77.1000 123° Southeast 146 168 1,400 -720 Descending Potomac TRACON
04:41PM 38.8833 -77.0500 131° Southeast 140 161 700 -660 Descending Potomac TRACON